^^
Station Historical Data
Daily Summary for July 25, 2017 Units:  Metric    English   Both
« Previous Day
Next Day »
Daily Weekly Monthly Yearly Custom
  High: Low: Average:
Temperature: 16.6 °C 2.7 °C 7.8 °C
Dew Point: 4.8 °C -13.8 °C -2.8 °C
Humidity: 81% 20% 50%
Wind Speed: 37km/h 0km/h 4.2km/h
Wind Gust: 38.6km/h - -
Wind- - SSW
Pressure: 1025.6 hPa 1018.5 hPa -
Precipitation: 0 mm    
Historical Graphs
 
 
Tabular Data for July 25, 2017
Time Temperature Dew Point Pressure Wind Wind Speed Wind Gust Humidity Rainfall Rate (Hourly) solar Conditions
00:01 7.8 °C -13.8 °C 1018.8 hPa Calm     20% 0 mm 0.0 W/m2
00:07 7.7 °C -13.3 °C 1018.8 hPa Calm     21% 0 mm 0.0 W/m2
00:12 7.7 °C -13.3 °C 1018.8 hPa Calm     21% 0 mm 0.0 W/m2
00:17 7.6 °C -12.8 °C 1018.8 hPa Calm     22% 0 mm 0.0 W/m2
00:23 7.4 °C -12.9 °C 1018.8 hPa Calm     22% 0 mm 0.0 W/m2
00:28 7.3 °C -12.5 °C 1018.8 hPa Calm     23% 0 mm 0.0 W/m2
00:33 7.2 °C -13.1 °C 1018.8 hPa Calm     22% 0 mm 0.0 W/m2
00:38 7.1 °C -12.7 °C 1018.5 hPa Calm     23% 0 mm 0.0 W/m2
00:43 7 °C -12.7 °C 1018.5 hPa Calm     23% 0 mm 0.0 W/m2
00:48 6.9 °C -12.8 °C 1018.5 hPa Calm     23% 0 mm 0.0 W/m2
00:53 6.8 °C -12.9 °C 1018.5 hPa Calm     23% 0 mm 0.0 W/m2
00:58 6.8 °C -12.9 °C 1018.5 hPa Calm     23% 0 mm 0.0 W/m2
01:03 7 °C -12.2 °C 1018.5 hPa Calm     24% 0 mm 0.0 W/m2
01:08 7 °C -12.2 °C 1018.5 hPa Calm     24% 0 mm 0.0 W/m2
01:14 6.9 °C -12.3 °C 1018.5 hPa Calm     24% 0 mm 0.0 W/m2
01:19 6.9 °C -12.3 °C 1018.5 hPa Calm     24% 0 mm 0.0 W/m2
01:25 6.8 °C -12.4 °C 1018.5 hPa Calm     24% 0 mm 0.0 W/m2
01:30 6.7 °C -11.5 °C 1018.8 hPa Calm     26% 0 mm 0.0 W/m2
01:35 7.4 °C -9.1 °C 1018.8 hPa Calm     30% 0 mm 0.0 W/m2
01:40 8.2 °C -7.1 °C 1018.8 hPa Calm     33% 0 mm 0.0 W/m2
01:45 8.7 °C -7.9 °C 1018.8 hPa Calm     30% 0 mm 0.0 W/m2
01:50 8.8 °C -9.2 °C 1018.8 hPa Calm     27% 0 mm 0.0 W/m2
01:55 8.7 °C -8.4 °C 1018.8 hPa Calm     29% 0 mm 0.0 W/m2
02:00 8.7 °C -7.9 °C 1018.8 hPa Calm     30% 0 mm 0.0 W/m2
02:05 8.7 °C -7.9 °C 1018.8 hPa Calm     30% 0 mm 0.0 W/m2
02:11 8.6 °C -7.6 °C 1018.8 hPa Calm     31% 0 mm 0.0 W/m2
02:16 8.4 °C -6.2 °C 1018.8 hPa Calm     35% 0 mm 0.0 W/m2
02:21 8.2 °C -5.6 °C 1018.8 hPa Calm     37% 0 mm 0.0 W/m2
02:26 8.1 °C -6.1 °C 1018.8 hPa Calm     36% 0 mm 0.0 W/m2
02:31 7.9 °C -6.3 °C 1018.8 hPa Calm     36% 0 mm 0.0 W/m2
02:36 7.6 °C -5.8 °C 1018.8 hPa Calm     38% 0 mm 0.0 W/m2
02:41 7.4 °C -6 °C 1018.8 hPa Calm     38% 0 mm 0.0 W/m2
02:46 7.1 °C -5.6 °C 1018.8 hPa Calm     40% 0 mm 0.0 W/m2
02:52 6.9 °C -6.1 °C 1018.8 hPa Calm     39% 0 mm 0.0 W/m2
02:57 6.7 °C -5.6 °C 1018.8 hPa Calm     41% 0 mm 0.0 W/m2
03:02 6.5 °C -5.8 °C 1018.8 hPa Calm     41% 0 mm 0.0 W/m2
03:07 6.3 °C -5.7 °C 1018.8 hPa Calm     42% 0 mm 0.0 W/m2
03:17 6 °C -5.9 °C 1018.8 hPa Calm     42% 0 mm 0.0 W/m2
03:23 6 °C -5.6 °C 1018.5 hPa Calm     43% 0 mm 0.0 W/m2
03:28 6 °C -5 °C 1018.8 hPa Calm     45% 0 mm 0.0 W/m2
03:33 6.1 °C -4.4 °C 1018.5 hPa Calm     47% 0 mm 0.0 W/m2
03:38 6.2 °C -4.9 °C 1018.5 hPa Calm     45% 0 mm 0.0 W/m2
03:43 6.1 °C -4.9 °C 1018.8 hPa Calm     45% 0 mm 0.0 W/m2
03:48 5.9 °C -5.4 °C 1018.5 hPa Calm     44% 0 mm 0.0 W/m2
03:53 5.7 °C -4.7 °C 1018.5 hPa Calm     47% 0 mm 0.0 W/m2
03:59 5.9 °C -3 °C 1018.8 hPa Calm     53% 0 mm 0.0 W/m2
04:04 6.1 °C -4.1 °C 1018.8 hPa Calm     48% 0 mm 0.0 W/m2
04:09 5.9 °C -4.3 °C 1018.8 hPa Calm     48% 0 mm 0.0 W/m2
04:14 5.9 °C -2.5 °C 1018.8 hPa Calm     55% 0 mm 0.0 W/m2
04:19 5.9 °C -2.5 °C 1018.8 hPa Calm     55% 0 mm 0.0 W/m2
04:24 5.8 °C -2.8 °C 1018.8 hPa Calm     54% 0 mm 0.0 W/m2
04:30 5.7 °C -2.6 °C 1018.8 hPa Calm     55% 0 mm 0.0 W/m2
04:35 5.5 °C -2.3 °C 1018.8 hPa Calm     57% 0 mm 0.0 W/m2
04:40 5.4 °C -1.7 °C 1018.8 hPa Calm     60% 0 mm 0.0 W/m2
04:45 5.4 °C -2.7 °C 1018.8 hPa Calm     56% 0 mm 0.0 W/m2
04:50 5.2 °C -1.9 °C 1018.8 hPa Calm     60% 0 mm 0.0 W/m2
04:55 5.2 °C -1.3 °C 1018.8 hPa Calm     63% 0 mm 0.0 W/m2
05:00 5.2 °C -1.1 °C 1018.8 hPa Calm     64% 0 mm 0.0 W/m2
05:05 5.2 °C -0.8 °C 1018.8 hPa Calm     65% 0 mm 0.0 W/m2
05:11 5.3 °C -1.2 °C 1018.8 hPa Calm     63% 0 mm 0.0 W/m2
05:21 5 °C -2.3 °C 1018.8 hPa Calm     59% 0 mm 0.0 W/m2
05:27 4.7 °C -3.1 °C 1018.8 hPa Calm     57% 0 mm 0.0 W/m2
05:36 4.2 °C -3.3 °C 1018.8 hPa Calm     58% 0 mm 0.0 W/m2
05:42 4.1 °C -3.7 °C 1018.8 hPa Calm     57% 0 mm 0.0 W/m2
05:47 4 °C -3.1 °C 1018.8 hPa Calm     60% 0 mm 0.0 W/m2
05:52 3.9 °C -3.6 °C 1018.8 hPa Calm     58% 0 mm 0.0 W/m2
05:57 3.8 °C -3 °C 1019.2 hPa Calm     61% 0 mm 0.0 W/m2
06:02 3.8 °C -3.3 °C 1019.2 hPa Calm     60% 0 mm 0.0 W/m2
06:07 3.7 °C -2.9 °C 1019.2 hPa Calm     62% 0 mm 0.0 W/m2
06:17 3.6 °C -3.4 °C 1019.2 hPa Calm     60% 0 mm 0.0 W/m2
06:23 3.5 °C -3.8 °C 1019.5 hPa Calm     59% 0 mm 0.0 W/m2
06:27 3.4 °C -3.4 °C 1019.5 hPa Calm     61% 0 mm 0.0 W/m2
06:33 3.2 °C -3.8 °C 1019.5 hPa Calm     60% 0 mm 0.0 W/m2
06:38 3.1 °C -3.9 °C 1019.5 hPa Calm     60% 0 mm 5.0 W/m2
06:44 2.9 °C -3.5 °C 1019.5 hPa Calm     63% 0 mm 9.0 W/m2
06:54 2.8 °C -4.2 °C 1019.5 hPa Calm     60% 0 mm 14.0 W/m2
06:59 2.7 °C -3.9 °C 1019.5 hPa Calm     62% 0 mm 16.0 W/m2
07:05 2.7 °C -3.4 °C 1019.5 hPa Calm     64% 0 mm 19.0 W/m2
07:09 2.8 °C -3.5 °C 1019.9 hPa Calm     63% 0 mm 21.0 W/m2
07:15 2.9 °C -3.5 °C 1019.9 hPa Calm     63% 0 mm 26.0 W/m2
07:19 3 °C -3.8 °C 1019.9 hPa Calm     61% 0 mm 35.0 W/m2
07:23 3 °C -3.8 °C 1019.9 hPa Calm     61% 0 mm 35.0 W/m2
07:36 3.7 °C -1.7 °C 1019.9 hPa Calm     68% 0 mm 107.0 W/m2
07:45 5.8 °C 2.1 °C 1020.2 hPa Calm     77% 0 mm 163.0 W/m2
08:03 8.4 °C 4.8 °C 1020.5 hPa North 17.7 km/h 19.3 km/h 78% 0 mm 220.0 W/m2
13:53 16.3 °C 3.4 °C 1021.2 hPa SSW 28.8 km/h 35.4 km/h 42% 0 mm 526.0 W/m2
14:01 16.2 °C 3.3 °C 1021.6 hPa SSW 19.5 km/h 37 km/h 42% 0 mm 508.0 W/m2
14:15 16.3 °C 3 °C 1021.2 hPa SSW 28.8 km/h 37 km/h 41% 0 mm 478.0 W/m2
14:23 16.2 °C 2.6 °C 1021.2 hPa SSW 22.7 km/h 38.6 km/h 40% 0 mm 471.0 W/m2
14:45 16.6 °C 1.1 °C 1021.2 hPa South 32 km/h 35.4 km/h 35% 0 mm 427.0 W/m2
14:58 16.4 °C 0.9 °C 1021.6 hPa South 25.9 km/h 33.8 km/h 35% 0 mm 390.0 W/m2
15:10 16.2 °C 1.1 °C 1021.9 hPa South 28.8 km/h 32.2 km/h 36% 0 mm 362.0 W/m2
15:40 15.4 °C 1.9 °C 1022.6 hPa South 37 km/h 37 km/h 40% 0 mm 276.0 W/m2
16:09 15.3 °C 2.8 °C 1022.6 hPa South 19.5 km/h 27.4 km/h 43% 0 mm 179.0 W/m2
16:19 15.2 °C 3 °C 1022.6 hPa South 17.7 km/h 25.7 km/h 44% 0 mm 141.0 W/m2
16:35 15.2 °C 3 °C 1022.9 hPa South 24.1 km/h 25.7 km/h 44% 0 mm 86.0 W/m2
16:49 14.8 °C 2.7 °C 1023.2 hPa South 20.9 km/h 27.4 km/h 44% 0 mm 46.0 W/m2
16:59 14.6 °C 3.1 °C 1023.2 hPa South 24.1 km/h 29 km/h 46% 0 mm 19.0 W/m2
17:10 14.4 °C 2.9 °C 1023.2 hPa South 16.3 km/h 27.4 km/h 46% 0 mm 9.0 W/m2
17:24 13.9 °C 3.1 °C 1023.2 hPa South 17.7 km/h 27.4 km/h 48% 0 mm 0.0 W/m2
17:32 13.7 °C 3.2 °C 1023.6 hPa South 20.9 km/h 24.1 km/h 49% 0 mm 0.0 W/m2
17:38 13.6 °C 3.1 °C 1023.6 hPa South 17.7 km/h 24.1 km/h 49% 0 mm 0.0 W/m2
17:49 13.4 °C 3.2 °C 1023.6 hPa South 13 km/h 20.9 km/h 50% 0 mm 0.0 W/m2
17:59 13.2 °C 3.3 °C 1023.9 hPa South 19.5 km/h 24.1 km/h 51% 0 mm 0.0 W/m2
19:02 12.1 °C 3.1 °C 1024.6 hPa South 13 km/h 16.1 km/h 54% 0 mm 0.0 W/m2
19:31 11.9 °C 2.9 °C 1024.9 hPa South 14.3 km/h 19.3 km/h 54% 0 mm 0.0 W/m2
19:59 11.2 °C 3.2 °C 1025.3 hPa South 7.9 km/h 9.7 km/h 58% 0 mm 0.0 W/m2
20:08 11.1 °C 3.4 °C 1025.3 hPa South 14.3 km/h 14.5 km/h 59% 0 mm 0.0 W/m2
20:16 11 °C 3.5 °C 1025.3 hPa South 11.1 km/h 11.3 km/h 60% 0 mm 0.0 W/m2
20:21 10.9 °C 3.4 °C 1025.3 hPa South 7.9 km/h 12.9 km/h 60% 0 mm 0.0 W/m2
20:52 10.3 °C 3.6 °C 1025.3 hPa South 9.7 km/h 12.9 km/h 63% 0 mm 0.0 W/m2
21:23 10.2 °C 3.9 °C 1025.3 hPa South 13 km/h 14.5 km/h 65% 0 mm 0.0 W/m2
21:37 9.7 °C 3.7 °C 1025.3 hPa South 3.2 km/h 8 km/h 66% 0 mm 0.0 W/m2
21:46 9.2 °C 3.6 °C 1025.3 hPa South 3.2 km/h 4.8 km/h 68% 0 mm 0.0 W/m2
21:55 8.7 °C 3.3 °C 1025.6 hPa Calm     69% 0 mm 0.0 W/m2
22:00 8.5 °C 3.5 °C 1025.6 hPa Calm     71% 0 mm 0.0 W/m2
22:08 8.3 °C 3.5 °C 1025.3 hPa Calm     72% 0 mm 0.0 W/m2
22:18 8.3 °C 3.9 °C 1025.3 hPa Calm     74% 0 mm 0.0 W/m2
22:28 8.2 °C 3.6 °C 1025.3 hPa Calm     73% 0 mm 0.0 W/m2
22:33 8 °C 3.5 °C 1025.3 hPa Calm     73% 0 mm 0.0 W/m2
22:43 7.6 °C 3.6 °C 1025.3 hPa Calm     76% 0 mm 0.0 W/m2
22:48 7.4 °C 3.4 °C 1025.3 hPa Calm     76% 0 mm 0.0 W/m2
22:53 7.3 °C 3.5 °C 1025.3 hPa Calm     77% 0 mm 0.0 W/m2
22:59 7.3 °C 3.5 °C 1024.9 hPa Calm     77% 0 mm 0.0 W/m2
23:04 7.1 °C 3.2 °C 1025.3 hPa Calm     76% 0 mm 0.0 W/m2
23:14 6.7 °C 3.1 °C 1025.3 hPa Calm     78% 0 mm 0.0 W/m2
23:30 6.1 °C 2.7 °C 1025.3 hPa Calm     79% 0 mm 0.0 W/m2
23:35 6.1 °C 2.9 °C 1025.3 hPa Calm     80% 0 mm 0.0 W/m2
23:40 6 °C 2.8 °C 1025.3 hPa Calm     80% 0 mm 0.0 W/m2
23:45 6 °C 3 °C 1024.9 hPa Calm     81% 0 mm 0.0 W/m2
23:50 5.9 °C 2.7 °C 1025.3 hPa Calm     80% 0 mm 0.0 W/m2
Canyon Roadhouse, Fishriver Canyon, Namibia
Compliments of Weather Underground - 2.25 mb